Time;durP1;ratioP1;P1;durP2;ratioP2;P2;SDS_P1;SDS_P2;PMS_P1;PMS_P2;Temp;Humidity;BMP_temperature;BMP_pressure;BME280_temperature;BME280_humidity;BME280_pressure;Samples;Min_cycle;Max_cycle;Signal;HPM_P1;HPM_P2
2022/10/30 06:01:07;;;;;;;6.55;3.25;;;;;;;;;;5777150;22;20435;-85
2022/10/30 06:03:35;;;;;;;5.30;3.45;;;;;;;;;;5022117;28;20407;-85
2022/10/30 06:06:01;;;;;;;5.50;3.80;;;;;;;;;;5021309;28;20488;-82
2022/10/30 06:08:30;;;;;;;8.73;3.53;;;;;;;;;;5015033;28;20387;-83
2022/10/30 06:10:56;;;;;;;5.37;3.53;;;;;;;;;;5032050;28;20411;-82
2022/10/30 06:13:22;;;;;;;7.35;3.50;;;;;;;;;;5032216;28;20418;-82
2022/10/30 06:15:50;;;;;;;4.60;3.20;;;;;;;;;;5032228;28;20383;-82
2022/10/30 06:18:16;;;;;;;5.38;3.10;;;;;;;;;;5018331;28;20393;-82
2022/10/30 06:20:45;;;;;;;9.10;5.15;;;;;;;;;;5015589;28;20746;-84
2022/10/30 06:23:14;;;;;;;12.13;6.00;;;;;;;;;;5012059;28;20400;-84
2022/10/30 06:25:43;;;;;;;7.93;4.18;;;;;;;;;;4991940;28;20414;-84
2022/10/30 06:28:10;;;;;;;5.97;4.22;;;;;;;;;;5009843;28;20962;-84
2022/10/30 06:30:44;;;;;;;5.80;4.10;;;;;;;;;;5030815;28;20868;-84
2022/10/30 06:33:10;;;;;;;12.43;7.20;;;;;;;;;;5031727;28;20390;-85
2022/10/30 06:35:39;;;;;;;15.32;8.27;;;;;;;;;;5031808;28;20387;-84
2022/10/30 06:38:10;;;;;;;11.75;7.25;;;;;;;;;;5030669;28;20876;-84
2022/10/30 06:40:36;;;;;;;14.00;6.88;;;;;;;;;;5028050;28;20512;-84
2022/10/30 06:43:02;;;;;;;11.43;5.47;;;;;;;;;;4996195;28;20509;-87
2022/10/30 06:45:46;;;;;;;8.88;4.93;;;;;;;;;;5010208;28;20424;-89
2022/10/30 06:48:12;;;;;;;9.00;4.60;;;;;;;;;;5012075;28;20388;-87
2022/10/30 06:50:38;;;;;;;5.15;3.85;;;;;;;;;;5010139;28;20738;-88
2022/10/30 06:53:10;;;;;;;5.97;3.88;;;;;;;;;;5011431;28;20373;-88
2022/10/30 06:55:42;;;;;;;7.13;3.90;;;;;;;;;;5015307;28;20408;-88
2022/10/30 06:58:08;;;;;;;6.05;3.97;;;;;;;;;;5021328;28;20404;-88
2022/10/30 07:00:34;;;;;;;7.32;4.50;;;;;;;;;;5011523;28;20393;-88
2022/10/30 07:03:00;;;;;;;9.05;4.53;;;;;;;;;;5004978;28;20740;-88
2022/10/30 07:05:27;;;;;;;6.95;4.45;;;;;;;;;;5006679;28;20776;-88
2022/10/30 07:07:55;;;;;;;8.13;4.60;;;;;;;;;;4992952;28;20374;-89
2022/10/30 07:10:21;;;;;;;9.43;6.20;;;;;;;;;;4998615;28;20469;-88
2022/10/30 07:12:50;;;;;;;10.35;6.03;;;;;;;;;;5009959;28;20939;-87
2022/10/30 07:15:16;;;;;;;7.97;5.30;;;;;;;;;;5004417;28;20461;-88
2022/10/30 07:17:42;;;;;;;8.80;5.38;;;;;;;;;;4994019;28;20896;-89
2022/10/30 07:20:09;;;;;;;8.07;5.00;;;;;;;;;;4977751;28;20943;-86
2022/10/30 07:22:37;;;;;;;8.50;4.78;;;;;;;;;;4992226;28;20405;-87
2022/10/30 07:25:04;;;;;;;7.45;5.47;;;;;;;;;;4990778;28;20390;-86
2022/10/30 07:27:30;;;;;;;6.30;4.88;;;;;;;;;;4990131;28;20391;-87
2022/10/30 07:29:56;;;;;;;6.63;5.15;;;;;;;;;;5010852;28;20413;-87
2022/10/30 07:32:22;;;;;;;7.95;5.30;;;;;;;;;;5030787;28;20393;-86
2022/10/30 07:34:48;;;;;;;11.35;5.95;;;;;;;;;;5016121;28;20385;-86
2022/10/30 07:37:14;;;;;;;7.35;5.47;;;;;;;;;;5003646;28;20407;-85
2022/10/30 07:39:40;;;;;;;8.63;5.15;;;;;;;;;;5014858;28;20867;-87
2022/10/30 07:42:06;;;;;;;7.15;5.30;;;;;;;;;;5006802;28;20398;-86
2022/10/30 07:44:32;;;;;;;8.10;5.15;;;;;;;;;;5018961;28;20416;-86
2022/10/30 07:46:58;;;;;;;6.85;5.80;;;;;;;;;;5013999;28;20423;-86
2022/10/30 07:49:24;;;;;;;6.88;5.60;;;;;;;;;;5014536;28;20862;-86
2022/10/30 07:51:50;;;;;;;9.48;5.80;;;;;;;;;;5014617;28;20408;-87
2022/10/30 07:54:16;;;;;;;6.57;4.82;;;;;;;;;;5014863;28;20383;-85
2022/10/30 07:56:42;;;;;;;7.25;5.43;;;;;;;;;;5014652;28;20471;-84
2022/10/30 07:59:08;;;;;;;8.63;5.63;;;;;;;;;;5014701;28;20476;-84
2022/10/30 08:01:34;;;;;;;7.80;5.47;;;;;;;;;;5008472;28;20405;-85
2022/10/30 08:04:00;;;;;;;11.90;5.90;;;;;;;;;;4993107;28;20414;-85
2022/10/30 08:06:29;;;;;;;9.40;5.80;;;;;;;;;;4995526;28;20446;-85
2022/10/30 08:09:00;;;;;;;12.30;8.82;;;;;;;;;;4997498;28;20720;-85
2022/10/30 08:11:32;;;;;;;15.80;9.55;;;;;;;;;;5001297;28;20380;-85
2022/10/30 08:13:58;;;;;;;17.17;10.10;;;;;;;;;;5013813;28;20408;-84
2022/10/30 08:16:29;;;;;;;13.63;9.10;;;;;;;;;;5030399;28;20415;-85
2022/10/30 08:18:55;;;;;;;13.75;9.40;;;;;;;;;;5021438;28;20925;-85
2022/10/30 08:21:21;;;;;;;14.80;9.73;;;;;;;;;;5005061;28;20929;-85
2022/10/30 08:23:50;;;;;;;18.58;11.85;;;;;;;;;;5004359;28;20389;-84
2022/10/30 08:26:16;;;;;;;17.42;11.30;;;;;;;;;;5000311;28;20463;-85
2022/10/30 08:28:45;;;;;;;17.08;11.52;;;;;;;;;;5002371;28;20435;-84
2022/10/30 08:31:11;;;;;;;17.95;12.10;;;;;;;;;;5011922;28;20928;-84
2022/10/30 08:33:37;;;;;;;19.20;11.55;;;;;;;;;;5033503;28;20392;-84
2022/10/30 08:36:09;;;;;;;17.40;12.35;;;;;;;;;;5023847;28;20402;-84
2022/10/30 08:38:38;;;;;;;23.67;14.00;;;;;;;;;;5001133;28;20393;-84
2022/10/30 08:41:07;;;;;;;23.40;13.70;;;;;;;;;;5018260;28;20472;-84
2022/10/30 08:43:33;;;;;;;20.30;13.43;;;;;;;;;;4993713;28;20393;-86
2022/10/30 08:45:59;;;;;;;22.30;13.88;;;;;;;;;;5004503;28;20404;-84
2022/10/30 08:48:25;;;;;;;17.83;12.38;;;;;;;;;;5013547;28;20870;-85
2022/10/30 08:50:57;;;;;;;18.40;11.60;;;;;;;;;;5013901;28;20424;-85
2022/10/30 08:53:23;;;;;;;14.57;10.30;;;;;;;;;;5033701;28;20433;-84
2022/10/30 08:55:50;;;;;;;18.92;11.40;;;;;;;;;;5011336;28;20412;-85
2022/10/30 08:58:19;;;;;;;15.18;11.18;;;;;;;;;;4997472;28;20386;-86
2022/10/30 09:00:51;;;;;;;18.90;11.13;;;;;;;;;;5000583;28;20408;-85
2022/10/30 09:03:20;;;;;;;19.10;12.13;;;;;;;;;;5009290;28;20434;-86
2022/10/30 09:05:46;;;;;;;16.90;11.43;;;;;;;;;;5002340;28;20409;-85
2022/10/30 09:08:12;;;;;;;14.98;11.13;;;;;;;;;;5012036;28;20881;-84
2022/10/30 09:10:41;;;;;;;15.70;10.73;;;;;;;;;;5012883;28;20385;-84
2022/10/30 09:13:08;;;;;;;14.15;10.73;;;;;;;;;;5013296;28;20415;-84
2022/10/30 09:15:34;;;;;;;13.50;10.45;;;;;;;;;;5013161;28;20475;-84
2022/10/30 09:18:07;;;;;;;11.85;9.93;;;;;;;;;;5012873;28;20458;-84
2022/10/30 09:20:37;;;;;;;11.23;9.10;;;;;;;;;;5022860;28;20412;-84
2022/10/30 09:23:09;;;;;;;13.02;10.27;;;;;;;;;;5013312;28;20385;-83
2022/10/30 09:25:41;;;;;;;18.85;11.85;;;;;;;;;;5010803;28;20425;-84
2022/10/30 09:28:10;;;;;;;15.13;10.23;;;;;;;;;;5022996;28;20389;-84
2022/10/30 09:30:38;;;;;;;17.53;13.10;;;;;;;;;;5013072;28;20472;-84
2022/10/30 09:33:04;;;;;;;22.83;16.08;;;;;;;;;;5020246;28;20392;-84
2022/10/30 09:35:40;;;;;;;18.08;12.93;;;;;;;;;;5013077;28;20388;-84
2022/10/30 09:38:18;;;;;;;14.93;11.55;;;;;;;;;;5011443;28;20901;-85
2022/10/30 09:41:04;;;;;;;14.77;10.47;;;;;;;;;;5012626;28;20443;-85
2022/10/30 09:43:35;;;;;;;15.07;10.32;;;;;;;;;;5013227;28;20385;-84
2022/10/30 09:46:10;;;;;;;15.98;11.70;;;;;;;;;;5013248;28;20492;-85
2022/10/30 09:48:58;;;;;;;19.58;14.20;;;;;;;;;;5013076;28;20423;-85
2022/10/30 09:51:36;;;;;;;14.13;11.50;;;;;;;;;;5024083;28;20381;-84
2022/10/30 09:54:13;;;;;;;15.02;11.27;;;;;;;;;;5012910;28;20438;-85
2022/10/30 09:56:43;;;;;;;17.30;11.37;;;;;;;;;;5011639;28;20842;-85
2022/10/30 09:59:29;;;;;;;16.98;11.93;;;;;;;;;;5012367;28;20435;-84
2022/10/30 10:02:03;;;;;;;16.52;11.82;;;;;;;;;;5002467;28;20419;-84
2022/10/30 10:04:55;;;;;;;14.53;12.30;;;;;;;;;;5013056;28;20385;-85
2022/10/30 10:07:22;;;;;;;13.45;12.02;;;;;;;;;;5007858;28;20771;-84
2022/10/30 10:09:51;;;;;;;13.73;12.25;;;;;;;;;;5012633;28;20415;-84
2022/10/30 10:12:35;;;;;;;20.50;12.13;;;;;;;;;;5010886;28;20799;-85
2022/10/30 10:15:07;;;;;;;21.47;12.67;;;;;;;;;;5009044;28;20439;-86
2022/10/30 10:17:49;;;;;;;14.38;12.25;;;;;;;;;;5013517;28;20383;-87
2022/10/30 10:20:27;;;;;;;17.92;11.63;;;;;;;;;;5012047;28;20396;-86
2022/10/30 10:23:10;;;;;;;13.55;12.25;;;;;;;;;;5012410;28;20389;-86
2022/10/30 10:25:37;;;;;;;15.73;11.20;;;;;;;;;;5010928;28;20841;-85
2022/10/30 10:28:03;;;;;;;13.95;11.35;;;;;;;;;;5032143;28;20414;-86
2022/10/30 10:30:45;;;;;;;17.52;12.00;;;;;;;;;;5030933;28;20419;-86
2022/10/30 10:33:20;;;;;;;15.73;12.32;;;;;;;;;;5011764;28;20443;-86
2022/10/30 10:36:03;;;;;;;16.13;12.30;;;;;;;;;;5012251;28;20376;-86
2022/10/30 10:38:51;;;;;;;18.25;13.65;;;;;;;;;;5020259;28;20385;-86
2022/10/30 10:41:20;;;;;;;19.00;13.05;;;;;;;;;;5007226;28;20385;-86
2022/10/30 10:43:58;;;;;;;18.25;14.15;;;;;;;;;;5024014;28;20420;-86
2022/10/30 10:46:24;;;;;;;17.15;13.77;;;;;;;;;;5011677;28;20409;-87
2022/10/30 10:49:04;;;;;;;15.80;13.02;;;;;;;;;;5010918;28;20431;-84
2022/10/30 10:51:33;;;;;;;16.87;12.77;;;;;;;;;;5010908;28;20463;-84
2022/10/30 10:54:10;;;;;;;17.37;12.87;;;;;;;;;;5004544;28;20424;-86
2022/10/30 10:56:40;;;;;;;18.60;12.87;;;;;;;;;;4998532;28;20381;-85
2022/10/30 10:59:10;;;;;;;18.63;12.20;;;;;;;;;;5011954;28;20445;-83
2022/10/30 11:01:42;;;;;;;19.30;12.38;;;;;;;;;;5013172;28;20777;-84
2022/10/30 11:04:14;;;;;;;17.15;12.38;;;;;;;;;;5032146;28;20417;-84
2022/10/30 11:06:43;;;;;;;12.87;9.83;;;;;;;;;;5028430;28;20403;-84
2022/10/30 11:09:12;;;;;;;13.43;10.27;;;;;;;;;;4998673;28;20466;-85
2022/10/30 11:11:41;;;;;;;14.55;9.38;;;;;;;;;;5013150;28;20463;-86
2022/10/30 11:14:20;;;;;;;17.73;10.02;;;;;;;;;;5015717;28;20720;-86
2022/10/30 11:17:05;;;;;;;15.65;9.55;;;;;;;;;;5015750;28;20397;-85
2022/10/30 11:19:31;;;;;;;11.70;10.13;;;;;;;;;;5033999;28;20387;-84
2022/10/30 11:31:19;;;;;;;13.02;9.65;;;;;;;;;;4977869;28;20382;-92
2022/10/30 11:41:00;;;;;;;10.98;8.45;;;;;;;;;;4875326;29;20738;-94
2022/10/30 11:43:43;;;;;;;13.10;8.68;;;;;;;;;;4829196;29;20455;-92
2022/10/30 11:46:14;;;;;;;13.88;7.85;;;;;;;;;;4832137;29;20416;-90
2022/10/30 11:48:48;;;;;;;11.38;7.70;;;;;;;;;;4827989;29;20409;-89
2022/10/30 11:51:32;;;;;;;12.40;7.63;;;;;;;;;;4823828;29;20401;-89
2022/10/30 11:54:01;;;;;;;11.73;7.18;;;;;;;;;;4823484;29;20413;-90
2022/10/30 11:56:30;;;;;;;11.18;6.90;;;;;;;;;;4823705;29;20436;-92
2022/10/30 11:59:07;;;;;;;11.25;7.15;;;;;;;;;;4823671;29;20405;-93
2022/10/30 12:01:37;;;;;;;14.50;6.57;;;;;;;;;;4823412;29;20402;-93
2022/10/30 12:04:21;;;;;;;10.45;6.75;;;;;;;;;;4835419;29;20404;-90
2022/10/30 12:06:47;;;;;;;11.68;6.50;;;;;;;;;;4842284;29;20424;-92
2022/10/30 12:09:25;;;;;;;9.65;6.43;;;;;;;;;;4854770;29;20477;-93
2022/10/30 12:11:54;;;;;;;9.80;5.25;;;;;;;;;;4842085;29;20400;-93
2022/10/30 12:14:20;;;;;;;10.13;4.60;;;;;;;;;;4872062;29;20444;-91
2022/10/30 12:16:48;;;;;;;9.27;4.63;;;;;;;;;;4933601;28;20396;-92
2022/10/30 12:19:15;;;;;;;8.80;4.95;;;;;;;;;;5027044;28;21695;-92
2022/10/30 12:21:44;;;;;;;9.60;4.63;;;;;;;;;;5033978;28;20407;-91
2022/10/30 12:24:23;;;;;;;8.15;4.50;;;;;;;;;;5034213;28;20421;-91
2022/10/30 12:26:55;;;;;;;9.70;3.90;;;;;;;;;;5033687;28;20407;-92
2022/10/30 12:29:25;;;;;;;9.57;4.93;;;;;;;;;;5034336;28;20438;-91
2022/10/30 12:32:00;;;;;;;11.48;4.80;;;;;;;;;;5034029;28;20382;-91
2022/10/30 12:34:56;;;;;;;9.32;5.13;;;;;;;;;;5034040;28;20382;-92
2022/10/30 12:37:42;;;;;;;6.93;4.53;;;;;;;;;;5011892;28;20434;-90
2022/10/30 12:40:11;;;;;;;8.15;5.50;;;;;;;;;;5027505;28;20401;-89
2022/10/30 12:42:39;;;;;;;8.30;5.70;;;;;;;;;;5024023;28;20391;-89
2022/10/30 12:45:19;;;;;;;11.68;5.72;;;;;;;;;;5032339;28;20383;-89
2022/10/30 12:48:00;;;;;;;9.75;5.70;;;;;;;;;;5028344;28;20432;-86
2022/10/30 12:50:42;;;;;;;10.82;5.55;;;;;;;;;;5031669;28;20387;-88
2022/10/30 12:53:21;;;;;;;9.32;5.35;;;;;;;;;;5033761;28;20375;-87
2022/10/30 12:55:55;;;;;;;16.10;5.65;;;;;;;;;;5030610;28;20852;-87
2022/10/30 12:58:39;;;;;;;8.35;5.25;;;;;;;;;;5013758;28;20862;-87
2022/10/30 13:01:33;;;;;;;7.50;5.40;;;;;;;;;;5015918;28;20385;-86
2022/10/30 13:04:17;;;;;;;7.60;5.10;;;;;;;;;;5013392;28;20385;-87
2022/10/30 13:07:04;;;;;;;8.45;5.78;;;;;;;;;;5001644;28;20426;-87
2022/10/30 13:09:47;;;;;;;9.07;6.28;;;;;;;;;;5000854;28;20380;-88
2022/10/30 13:12:20;;;;;;;13.30;7.38;;;;;;;;;;5012546;28;20849;-87
2022/10/30 13:15:25;;;;;;;11.35;7.97;;;;;;;;;;5013118;28;20782;-87
2022/10/30 13:18:01;;;;;;;8.02;6.40;;;;;;;;;;5012896;28;20395;-87
2022/10/30 13:20:31;;;;;;;10.35;7.40;;;;;;;;;;5033310;28;20388;-87
2022/10/30 13:23:04;;;;;;;9.30;6.50;;;;;;;;;;5019714;28;20391;-87
2022/10/30 13:25:42;;;;;;;10.97;6.80;;;;;;;;;;5033055;28;20511;-86
2022/10/30 13:28:11;;;;;;;8.73;6.30;;;;;;;;;;5033078;28;20411;-87
2022/10/30 13:30:39;;;;;;;8.38;7.22;;;;;;;;;;5032551;28;20787;-86
2022/10/30 13:33:14;;;;;;;10.32;7.10;;;;;;;;;;5032182;28;20418;-87
2022/10/30 13:36:02;;;;;;;14.45;7.35;;;;;;;;;;5032918;28;20391;-87
2022/10/30 13:38:40;;;;;;;9.55;6.93;;;;;;;;;;5032761;28;20375;-86
2022/10/30 13:41:12;;;;;;;13.68;7.50;;;;;;;;;;5032744;28;20383;-87
2022/10/30 13:43:41;;;;;;;10.17;6.97;;;;;;;;;;5028497;28;20796;-87
2022/10/30 13:46:30;;;;;;;10.90;6.78;;;;;;;;;;5031911;28;20563;-86
2022/10/30 13:49:10;;;;;;;10.38;6.57;;;;;;;;;;5032719;28;20387;-85
2022/10/30 13:51:57;;;;;;;10.77;6.40;;;;;;;;;;5032621;28;20394;-86
2022/10/30 13:54:46;;;;;;;9.63;6.80;;;;;;;;;;5032537;28;20382;-86
2022/10/30 13:57:20;;;;;;;10.45;6.70;;;;;;;;;;5024470;28;20437;-87
2022/10/30 13:59:49;;;;;;;14.82;8.32;;;;;;;;;;5032547;28;20466;-87
2022/10/30 14:02:40;;;;;;;12.82;6.60;;;;;;;;;;5032282;28;20387;-86
2022/10/30 14:05:08;;;;;;;11.77;6.38;;;;;;;;;;5030962;28;20751;-87
2022/10/30 14:08:00;;;;;;;14.23;6.82;;;;;;;;;;5032308;28;20418;-86
2022/10/30 14:10:26;;;;;;;13.80;6.57;;;;;;;;;;5031315;28;20474;-86
2022/10/30 14:13:06;;;;;;;10.23;6.40;;;;;;;;;;5032465;28;21021;-87
2022/10/30 14:15:38;;;;;;;9.80;6.95;;;;;;;;;;5028270;28;20388;-87
2022/10/30 14:18:13;;;;;;;10.20;7.55;;;;;;;;;;5019681;28;20376;-86
2022/10/30 14:20:46;;;;;;;12.02;7.07;;;;;;;;;;5022426;28;20480;-87
2022/10/30 14:23:14;;;;;;;10.13;6.85;;;;;;;;;;5031877;28;20410;-87
2022/10/30 14:25:45;;;;;;;13.05;7.88;;;;;;;;;;5032156;28;20414;-87
2022/10/30 14:28:34;;;;;;;12.15;7.05;;;;;;;;;;5032364;28;20379;-86
2022/10/30 14:31:05;;;;;;;10.32;7.47;;;;;;;;;;5023155;28;20397;-86
2022/10/30 14:33:43;;;;;;;9.05;6.40;;;;;;;;;;5030939;28;20383;-87
2022/10/30 14:36:22;;;;;;;9.80;7.10;;;;;;;;;;5032401;28;20429;-85
2022/10/30 14:38:54;;;;;;;12.23;7.00;;;;;;;;;;5032043;28;20460;-86
2022/10/30 14:41:50;;;;;;;13.30;8.23;;;;;;;;;;5018962;28;20389;-86
2022/10/30 14:44:34;;;;;;;12.55;7.32;;;;;;;;;;5021402;28;20895;-87
2022/10/30 14:47:09;;;;;;;9.45;7.60;;;;;;;;;;5036255;28;20418;-86
2022/10/30 14:49:46;;;;;;;12.52;7.90;;;;;;;;;;5030568;28;20388;-87
2022/10/30 14:52:29;;;;;;;13.48;8.70;;;;;;;;;;5034805;28;20379;-86
2022/10/30 14:55:25;;;;;;;11.50;8.15;;;;;;;;;;5035944;28;20371;-88
2022/10/30 14:57:52;;;;;;;8.77;7.88;;;;;;;;;;5036013;28;20375;-86
2022/10/30 15:00:24;;;;;;;12.57;8.18;;;;;;;;;;5035424;28;20791;-86
2022/10/30 15:03:19;;;;;;;9.82;7.63;;;;;;;;;;5035471;28;20387;-89
2022/10/30 15:05:51;;;;;;;11.65;7.53;;;;;;;;;;5023224;28;20784;-87
2022/10/30 15:08:19;;;;;;;13.85;7.70;;;;;;;;;;5035641;28;20852;-86
2022/10/30 15:11:04;;;;;;;11.70;7.03;;;;;;;;;;5035535;28;20430;-86
2022/10/30 15:13:30;;;;;;;13.03;7.10;;;;;;;;;;5035566;28;20387;-86
2022/10/30 15:16:09;;;;;;;10.98;7.18;;;;;;;;;;5033184;28;20418;-87
2022/10/30 15:18:35;;;;;;;10.10;6.80;;;;;;;;;;5019770;28;20410;-86
2022/10/30 15:21:05;;;;;;;11.70;7.28;;;;;;;;;;5035170;28;20441;-86
2022/10/30 15:23:33;;;;;;;12.07;7.50;;;;;;;;;;5034878;28;20398;-87
2022/10/30 15:26:10;;;;;;;11.38;7.38;;;;;;;;;;5033931;28;20803;-87
2022/10/30 15:28:37;;;;;;;12.95;7.53;;;;;;;;;;5020460;28;20417;-85
2022/10/30 15:31:19;;;;;;;10.15;6.93;;;;;;;;;;5030601;28;20919;-86
2022/10/30 15:33:45;;;;;;;11.52;7.78;;;;;;;;;;5034925;28;20943;-85
2022/10/30 15:36:16;;;;;;;10.70;7.90;;;;;;;;;;5035113;28;20461;-86
2022/10/30 15:38:42;;;;;;;13.85;7.38;;;;;;;;;;5022886;28;20388;-86
2022/10/30 15:41:08;;;;;;;10.90;7.68;;;;;;;;;;5026497;28;20404;-86
2022/10/30 15:43:38;;;;;;;14.73;7.22;;;;;;;;;;5030529;28;20477;-85
2022/10/30 15:46:11;;;;;;;11.90;8.20;;;;;;;;;;5005757;28;20512;-85
2022/10/30 15:48:39;;;;;;;11.00;7.75;;;;;;;;;;5015875;28;20935;-86
2022/10/30 15:51:13;;;;;;;11.13;7.60;;;;;;;;;;5028446;28;20917;-87
2022/10/30 15:53:48;;;;;;;9.55;8.05;;;;;;;;;;5017269;28;20422;-87
2022/10/30 15:56:19;;;;;;;11.68;7.95;;;;;;;;;;5033204;28;20885;-87
2022/10/30 15:58:48;;;;;;;10.67;8.47;;;;;;;;;;5025115;28;20404;-87
2022/10/30 16:01:24;;;;;;;10.65;8.20;;;;;;;;;;5018090;28;20463;-87
2022/10/30 16:03:53;;;;;;;19.77;7.85;;;;;;;;;;5033911;28;20379;-92
2022/10/30 16:06:24;;;;;;;12.52;7.05;;;;;;;;;;5036608;28;20413;-92
2022/10/30 16:08:53;;;;;;;15.55;8.27;;;;;;;;;;5035579;28;20383;-92
2022/10/30 16:14:01;;;;;;;12.15;7.68;;;;;;;;;;5194044;22;20433;-93
2022/10/30 16:19:41;;;;;;;14.25;11.05;;;;;;;;;;5027757;28;20788;-88
2022/10/30 16:22:10;;;;;;;12.07;9.38;;;;;;;;;;5446023;22;20434;-91
2022/10/30 16:24:48;;;;;;;12.13;8.48;;;;;;;;;;5039953;28;20432;-93
2022/10/30 16:27:43;;;;;;;;;;;;;;;;;;;;;
2022/10/30 16:30:41;;;;;;;17.30;12.82;;;;;;;;;;4962126;28;20455;-91
2022/10/30 16:33:10;;;;;;;32.73;19.73;;;;;;;;;;5043921;28;20382;-91
2022/10/30 16:36:07;;;;;;;28.02;17.58;;;;;;;;;;5028149;28;20824;-91
2022/10/30 16:38:46;;;;;;;21.50;15.40;;;;;;;;;;5010920;28;20383;-91
2022/10/30 16:41:12;;;;;;;36.05;26.25;;;;;;;;;;5042738;28;20390;-92
2022/10/30 16:43:59;;;;;;;43.37;27.70;;;;;;;;;;5033342;28;20391;-90
2022/10/30 16:46:44;;;;;;;42.00;28.27;;;;;;;;;;5032679;28;20411;-92
2022/10/30 16:52:27;;;;;;;51.22;34.58;;;;;;;;;;5013938;28;20383;-91
2022/10/30 16:55:04;;;;;;;57.45;36.92;;;;;;;;;;5034389;28;20380;-89
2022/10/30 16:57:31;;;;;;;45.88;29.90;;;;;;;;;;5036143;28;20454;-87
2022/10/30 17:00:05;;;;;;;50.35;33.13;;;;;;;;;;5035597;28;20887;-89
2022/10/30 17:02:32;;;;;;;40.03;26.10;;;;;;;;;;5029976;28;20442;-90
2022/10/30 17:05:18;;;;;;;35.55;23.77;;;;;;;;;;5032257;28;20391;-89
2022/10/30 17:07:54;;;;;;;27.05;19.42;;;;;;;;;;5006905;28;20439;-88
2022/10/30 17:10:30;;;;;;;50.03;18.75;;;;;;;;;;5029619;28;20449;-90
2022/10/30 17:13:15;;;;;;;31.25;18.50;;;;;;;;;;5035287;28;20385;-91
2022/10/30 17:15:41;;;;;;;35.05;18.90;;;;;;;;;;5041103;28;20732;-89
2022/10/30 17:18:10;;;;;;;23.60;15.10;;;;;;;;;;5047690;28;20416;-90
2022/10/30 17:20:36;;;;;;;35.57;21.37;;;;;;;;;;5035213;28;20981;-91
2022/10/30 17:23:06;;;;;;;28.38;18.67;;;;;;;;;;5032128;28;20398;-88
2022/10/30 17:25:37;;;;;;;22.25;14.05;;;;;;;;;;5043818;28;20878;-88
2022/10/30 17:28:03;;;;;;;22.90;15.75;;;;;;;;;;5046929;28;20380;-89
2022/10/30 17:30:34;;;;;;;39.83;26.90;;;;;;;;;;5047239;28;20385;-88
2022/10/30 17:33:01;;;;;;;36.83;23.08;;;;;;;;;;5049867;28;20393;-89
2022/10/30 17:35:29;;;;;;;63.80;39.42;;;;;;;;;;5042671;28;20860;-88
2022/10/30 17:37:55;;;;;;;76.30;50.40;;;;;;;;;;5043516;28;20388;-89
2022/10/30 17:40:21;;;;;;;83.50;55.55;;;;;;;;;;5047788;28;20743;-90
2022/10/30 17:42:48;;;;;;;67.70;46.58;;;;;;;;;;5037593;28;20414;-85
2022/10/30 17:45:14;;;;;;;62.70;41.38;;;;;;;;;;5020124;28;20943;-84
2022/10/30 17:47:41;;;;;;;54.92;37.45;;;;;;;;;;5030277;28;20422;-84
2022/10/30 17:50:07;;;;;;;53.13;36.33;;;;;;;;;;5020332;28;20381;-86
2022/10/30 17:52:33;;;;;;;55.35;32.75;;;;;;;;;;5034553;28;20374;-85
2022/10/30 17:55:00;;;;;;;72.95;40.50;;;;;;;;;;5041728;28;20382;-85
2022/10/30 17:57:51;;;;;;;60.90;34.15;;;;;;;;;;5036106;28;20386;-84
2022/10/30 18:00:17;;;;;;;67.25;37.58;;;;;;;;;;5032881;28;20383;-87
2022/10/30 18:02:43;;;;;;;54.72;33.10;;;;;;;;;;5048154;28;20378;-85
2022/10/30 18:05:17;;;;;;;47.00;27.20;;;;;;;;;;5046443;28;20412;-87
2022/10/30 18:07:43;;;;;;;35.83;22.25;;;;;;;;;;5036500;28;20433;-86
2022/10/30 18:10:10;;;;;;;32.63;22.40;;;;;;;;;;5041444;28;20404;-85
2022/10/30 18:12:36;;;;;;;42.72;25.30;;;;;;;;;;5045641;28;20378;-87
2022/10/30 18:15:25;;;;;;;39.03;24.05;;;;;;;;;;5038527;28;20388;-83
2022/10/30 18:17:51;;;;;;;85.93;42.57;;;;;;;;;;5027891;28;20398;-82
2022/10/30 18:20:17;;;;;;;39.47;24.00;;;;;;;;;;5029528;28;20399;-82
2022/10/30 18:22:43;;;;;;;172.10;81.25;;;;;;;;;;5029750;28;20399;-82
2022/10/30 18:25:15;;;;;;;168.13;80.95;;;;;;;;;;5040024;28;20397;-82
2022/10/30 18:27:43;;;;;;;151.38;78.45;;;;;;;;;;5032465;28;20442;-82
2022/10/30 18:30:10;;;;;;;186.55;104.93;;;;;;;;;;5030033;28;20458;-82
2022/10/30 18:32:36;;;;;;;159.48;89.30;;;;;;;;;;5032178;28;20394;-82
2022/10/30 18:35:09;;;;;;;156.40;79.47;;;;;;;;;;5044464;28;20383;-82
2022/10/30 18:37:35;;;;;;;133.82;68.50;;;;;;;;;;5045760;28;20438;-82
2022/10/30 18:40:01;;;;;;;108.95;57.10;;;;;;;;;;5048602;28;20381;-82
2022/10/30 18:42:27;;;;;;;73.85;40.55;;;;;;;;;;5043674;28;20419;-82
2022/10/30 18:44:53;;;;;;;56.70;33.90;;;;;;;;;;5039172;28;20891;-82
2022/10/30 18:47:19;;;;;;;74.70;45.67;;;;;;;;;;5043359;28;20496;-82
2022/10/30 18:49:45;;;;;;;69.45;41.75;;;;;;;;;;5044458;28;20393;-83
2022/10/30 18:52:14;;;;;;;60.28;34.90;;;;;;;;;;5043238;28;20372;-83
2022/10/30 18:54:39;;;;;;;26.73;16.58;;;;;;;;;;5047219;28;20389;-82
2022/10/30 18:57:05;;;;;;;30.92;20.27;;;;;;;;;;5047803;28;20455;-82
2022/10/30 18:59:31;;;;;;;25.92;18.10;;;;;;;;;;5042904;28;20381;-82
2022/10/30 19:01:57;;;;;;;26.05;18.13;;;;;;;;;;5044039;28;20382;-82
2022/10/30 19:04:23;;;;;;;30.50;22.25;;;;;;;;;;5042391;28;20398;-83
2022/10/30 19:06:49;;;;;;;35.90;24.77;;;;;;;;;;5041809;28;20413;-83
2022/10/30 19:09:15;;;;;;;28.10;21.38;;;;;;;;;;5041827;28;20382;-84
2022/10/30 19:11:41;;;;;;;70.22;46.75;;;;;;;;;;5047804;28;20389;-83
2022/10/30 19:14:10;;;;;;;85.15;54.88;;;;;;;;;;5041148;28;20375;-83
2022/10/30 19:16:36;;;;;;;103.65;61.38;;;;;;;;;;5042387;28;20403;-84
2022/10/30 19:19:07;;;;;;;62.83;40.63;;;;;;;;;;5045178;28;20392;-83
2022/10/30 19:21:34;;;;;;;82.90;53.97;;;;;;;;;;5047413;28;20416;-83
2022/10/30 19:24:08;;;;;;;89.43;55.80;;;;;;;;;;5042860;28;20473;-83
2022/10/30 19:26:34;;;;;;;86.88;54.58;;;;;;;;;;5042839;28;20993;-82
2022/10/30 19:29:00;;;;;;;74.75;47.47;;;;;;;;;;5046579;28;20373;-83
2022/10/30 19:31:26;;;;;;;69.43;45.53;;;;;;;;;;5031409;28;20732;-84
2022/10/30 19:33:53;;;;;;;78.75;51.53;;;;;;;;;;5031658;28;20386;-82
2022/10/30 19:36:25;;;;;;;63.90;44.70;;;;;;;;;;5034981;28;20470;-83
2022/10/30 19:38:51;;;;;;;49.65;36.35;;;;;;;;;;5037311;28;20389;-86
2022/10/30 19:41:28;;;;;;;54.20;38.88;;;;;;;;;;5049432;28;20472;-85
2022/10/30 19:43:54;;;;;;;52.13;39.17;;;;;;;;;;5027535;28;20375;-85
2022/10/30 19:46:21;;;;;;;50.00;36.90;;;;;;;;;;5031190;28;20966;-86
2022/10/30 19:48:47;;;;;;;43.20;32.38;;;;;;;;;;5037117;28;20399;-87
2022/10/30 19:51:13;;;;;;;34.30;26.95;;;;;;;;;;5030476;28;20476;-87
2022/10/30 19:53:40;;;;;;;27.73;21.63;;;;;;;;;;5041377;28;20478;-86
2022/10/30 19:56:06;;;;;;;25.40;21.23;;;;;;;;;;5034553;28;20379;-87
2022/10/30 19:58:32;;;;;;;24.83;19.30;;;;;;;;;;5033649;28;20374;-87
2022/10/30 20:00:58;;;;;;;20.30;17.08;;;;;;;;;;5044080;28;20741;-87
2022/10/30 20:03:26;;;;;;;18.67;16.58;;;;;;;;;;5037361;28;20387;-86
2022/10/30 20:05:54;;;;;;;19.40;16.33;;;;;;;;;;5036586;28;20401;-86
2022/10/30 20:08:21;;;;;;;21.63;17.67;;;;;;;;;;5029939;28;20730;-87
2022/10/30 20:10:50;;;;;;;16.67;13.77;;;;;;;;;;5035118;28;20392;-86
2022/10/30 20:13:16;;;;;;;14.95;13.55;;;;;;;;;;5048905;28;20386;-86
2022/10/30 20:15:42;;;;;;;15.35;13.95;;;;;;;;;;5047152;28;20389;-87
2022/10/30 20:18:18;;;;;;;13.87;12.47;;;;;;;;;;5043260;28;20407;-87
2022/10/30 20:21:07;;;;;;;14.15;12.65;;;;;;;;;;5041484;28;20395;-86
2022/10/30 20:23:32;;;;;;;15.27;12.60;;;;;;;;;;5045492;28;20416;-87
2022/10/30 20:26:03;;;;;;;15.45;13.85;;;;;;;;;;5047655;28;20904;-87
2022/10/30 20:28:37;;;;;;;14.40;13.00;;;;;;;;;;5043041;28;20506;-83
2022/10/30 20:31:03;;;;;;;20.27;16.55;;;;;;;;;;5026950;28;20550;-83
2022/10/30 20:33:29;;;;;;;17.42;14.82;;;;;;;;;;5024202;28;20961;-83
2022/10/30 20:35:55;;;;;;;14.43;13.02;;;;;;;;;;5023487;28;20487;-83
2022/10/30 20:38:27;;;;;;;13.43;12.23;;;;;;;;;;5025749;28;20507;-83
2022/10/30 20:40:53;;;;;;;11.48;10.23;;;;;;;;;;5021549;28;20408;-82
2022/10/30 20:43:20;;;;;;;11.13;10.02;;;;;;;;;;5021834;28;20762;-83
2022/10/30 20:45:47;;;;;;;11.50;10.32;;;;;;;;;;5026926;28;20491;-82
2022/10/30 20:48:16;;;;;;;11.55;10.50;;;;;;;;;;5039133;28;20385;-82
2022/10/30 20:50:42;;;;;;;12.13;10.02;;;;;;;;;;5035195;28;20473;-82
2022/10/30 20:53:11;;;;;;;10.30;9.30;;;;;;;;;;5030962;28;20395;-82
2022/10/30 20:55:37;;;;;;;10.73;9.75;;;;;;;;;;5025194;28;20407;-82
2022/10/30 20:58:03;;;;;;;10.38;9.35;;;;;;;;;;5026223;28;20413;-82
2022/10/30 21:00:32;;;;;;;10.45;9.45;;;;;;;;;;5029246;28;20503;-82
2022/10/30 21:02:58;;;;;;;14.32;12.82;;;;;;;;;;5020858;28;20411;-82
2022/10/30 21:05:24;;;;;;;15.13;12.77;;;;;;;;;;5030186;28;20454;-82
2022/10/30 21:07:50;;;;;;;17.20;12.95;;;;;;;;;;5026007;28;20927;-82
2022/10/30 21:10:16;;;;;;;15.35;12.82;;;;;;;;;;5019592;28;20401;-82
2022/10/30 21:12:42;;;;;;;14.15;11.95;;;;;;;;;;5024969;28;20474;-82
2022/10/30 21:15:08;;;;;;;11.50;10.40;;;;;;;;;;5016361;28;20479;-82
2022/10/30 21:17:34;;;;;;;12.00;10.70;;;;;;;;;;5025668;28;20442;-83